Latest METARs, TAFs and NOTAMs for SEGU


---------------------------------------------------------------------------
	(OBSERVATIONS)
SEGU 150400Z 22012KT CAVOK 24/19 Q1011 NOSIG RMK A2986=
SEGU 150300Z 22010KT CAVOK 25/19 Q1010 NOSIG RMK A2985=
SEGU 150200Z 22010KT CAVOK 27/19 Q1010 NOSIG RMK A2982=
---------------------------------------------------------------------------
	(TERMINAL AREA FORECAST)
SEGU 142230Z 1500/1524 22012KT CAVOK
    FM150500 22007KT 9999 BKN020 BKN090
    FM151500 16005KT 9999 SCT023 SCT100 TX32/1520Z TN23/1510Z=
---------------------------------------------------------------------------
	(NOTAMS)


SEGU A0055/09 APN NORTE CLSD POR INCIDENTE DE ACFT 27 JAN 05:30
    UNTIL 27 JAN 18:00 ESTIMATED

SEGU A1077/17 MOV AREA WIP SUBJ TFC. CTN. 06 NOV 21:32 2017 UNTIL
    17 FEB 23:59 2018. CREATED: 01 DEC 10:35 2017

SEGU A1078/17 WIP IN GREEN AREAS MOV AREA, SUBJ TFC. CTN. 06
    NOV 21:35 2017 UNTIL 17 FEB 23:59 2018. CREATED: 01 DEC 10:36
    2017

SEGU A1127/17 LAUNCH OF BALLOONS WITH PROBE WILL BE REALIZED
    FM STN GUAYAQUIL COORD 021618S 0795414W VSP 10 - 13FT/SEC
    HGT OF PROBING 83000FT. CTN. SFC - UNL, MON, WED AND FRI
    BTN 1015-1215, 14 NOV 10:15 2017 UNTIL 14 FEB 12:15 2018.
    CREATED: 13 NOV 22:33 2017

SEGU A1173/17 INSTALACIONES DE COMUNICACIONES ATS: APP HORAS
    DE FUNCIONAMIENTO: 1100-0400 REF AIP PAGE AD 2 SEGU 9 PART
    AD 2.18, COLUMN 4. 22 NOV 16:45 2017 UNTIL PERM. CREATED:
    22 NOV 16:45 2017

SEGU A1204/17 TRIGGER NOTAM -AIRAC AIP SUP 11 WEF 07 DEC 2017
    AP INTL JOSE JOAQUIN DE OLMEDO UPDATE OF RNAV STAR AND RNAV
    IAC. 07 DEC 00:00 2017 UNTIL 20 DEC 23:59 2017. CREATED:
    28 NOV 04:43 2017

SEGU A1463/06 COMBUSTIBLE JET A-1 RESTRINGIDO 20 POR CIENTO 26
    DEC 20:45 2006 UNTIL 04 JAN 23:00 ESTIMATED

---------------------------------------------------------------------------